sensor_id;sensor_type;location;lat;lon;timestamp;P1;durP1;ratioP1;P2;durP2;ratioP2
46439;SDS011;32138;50.966;6.968;2023-03-01T00:00:51;10.85;;;7.10;;
46439;SDS011;32138;50.966;6.968;2023-03-01T00:01:52;9.27;;;6.45;;
46439;SDS011;32138;50.966;6.968;2023-03-01T00:02:52;15.85;;;7.50;;
46439;SDS011;32138;50.966;6.968;2023-03-01T00:03:53;14.85;;;7.85;;
46439;SDS011;32138;50.966;6.968;2023-03-01T00:04:55;11.15;;;8.07;;
46439;SDS011;32138;50.966;6.968;2023-03-01T00:05:56;10.70;;;7.82;;
46439;SDS011;32138;50.966;6.968;2023-03-01T00:06:56;11.10;;;7.72;;
46439;SDS011;32138;50.966;6.968;2023-03-01T00:07:57;12.52;;;7.70;;
46439;SDS011;32138;50.966;6.968;2023-03-01T00:08:58;13.32;;;7.63;;
46439;SDS011;32138;50.966;6.968;2023-03-01T00:09:59;11.00;;;6.95;;
46439;SDS011;32138;50.966;6.968;2023-03-01T00:11:21;13.25;;;7.78;;
46439;SDS011;32138;50.966;6.968;2023-03-01T00:12:29;11.60;;;7.18;;
46439;SDS011;32138;50.966;6.968;2023-03-01T00:13:31;13.15;;;7.45;;
46439;SDS011;32138;50.966;6.968;2023-03-01T00:14:33;12.90;;;6.90;;
46439;SDS011;32138;50.966;6.968;2023-03-01T00:15:38;14.32;;;7.90;;
46439;SDS011;32138;50.966;6.968;2023-03-01T00:16:41;11.10;;;7.10;;
46439;SDS011;32138;50.966;6.968;2023-03-01T00:17:43;8.05;;;6.25;;
46439;SDS011;32138;50.966;6.968;2023-03-01T00:18:44;12.48;;;7.10;;
46439;SDS011;32138;50.966;6.968;2023-03-01T00:19:45;9.57;;;5.88;;
46439;SDS011;32138;50.966;6.968;2023-03-01T00:20:55;11.25;;;6.55;;
46439;SDS011;32138;50.966;6.968;2023-03-01T00:21:56;9.85;;;5.80;;
46439;SDS011;32138;50.966;6.968;2023-03-01T00:22:57;9.88;;;6.15;;
46439;SDS011;32138;50.966;6.968;2023-03-01T00:23:57;9.63;;;6.25;;
46439;SDS011;32138;50.966;6.968;2023-03-01T00:24:58;9.23;;;5.38;;
46439;SDS011;32138;50.966;6.968;2023-03-01T00:25:59;7.55;;;5.35;;
46439;SDS011;32138;50.966;6.968;2023-03-01T00:27:00;10.10;;;6.18;;
46439;SDS011;32138;50.966;6.968;2023-03-01T00:28:00;9.30;;;5.97;;
46439;SDS011;32138;50.966;6.968;2023-03-01T00:29:01;11.07;;;5.60;;
46439;SDS011;32138;50.966;6.968;2023-03-01T00:30:02;9.85;;;5.93;;
46439;SDS011;32138;50.966;6.968;2023-03-01T00:31:04;8.95;;;6.40;;
46439;SDS011;32138;50.966;6.968;2023-03-01T00:32:07;8.30;;;6.03;;
46439;SDS011;32138;50.966;6.968;2023-03-01T00:33:07;9.95;;;5.82;;
46439;SDS011;32138;50.966;6.968;2023-03-01T00:34:08;7.97;;;5.80;;
46439;SDS011;32138;50.966;6.968;2023-03-01T00:35:09;11.68;;;5.82;;
46439;SDS011;32138;50.966;6.968;2023-03-01T00:36:11;12.55;;;6.50;;
46439;SDS011;32138;50.966;6.968;2023-03-01T00:37:14;9.18;;;6.20;;
46439;SDS011;32138;50.966;6.968;2023-03-01T00:38:15;7.50;;;6.05;;
46439;SDS011;32138;50.966;6.968;2023-03-01T00:39:15;8.52;;;5.70;;
46439;SDS011;32138;50.966;6.968;2023-03-01T00:40:16;11.80;;;6.45;;
46439;SDS011;32138;50.966;6.968;2023-03-01T00:41:17;7.05;;;5.07;;
46439;SDS011;32138;50.966;6.968;2023-03-01T00:42:20;7.07;;;5.45;;
46439;SDS011;32138;50.966;6.968;2023-03-01T00:43:22;10.80;;;5.32;;
46439;SDS011;32138;50.966;6.968;2023-03-01T00:44:22;8.30;;;5.40;;
46439;SDS011;32138;50.966;6.968;2023-03-01T00:45:23;9.32;;;5.70;;
46439;SDS011;32138;50.966;6.968;2023-03-01T00:46:25;8.63;;;6.60;;
46439;SDS011;32138;50.966;6.968;2023-03-01T00:47:29;9.10;;;4.72;;
46439;SDS011;32138;50.966;6.968;2023-03-01T00:48:30;9.35;;;5.90;;
46439;SDS011;32138;50.966;6.968;2023-03-01T00:49:30;9.32;;;5.28;;
46439;SDS011;32138;50.966;6.968;2023-03-01T00:50:31;9.63;;;6.20;;
46439;SDS011;32138;50.966;6.968;2023-03-01T00:51:32;10.00;;;5.95;;
46439;SDS011;32138;50.966;6.968;2023-03-01T00:52:33;8.43;;;5.18;;
46439;SDS011;32138;50.966;6.968;2023-03-01T00:53:34;7.70;;;5.80;;
46439;SDS011;32138;50.966;6.968;2023-03-01T00:54:35;7.95;;;5.40;;
46439;SDS011;32138;50.966;6.968;2023-03-01T00:55:36;9.55;;;6.03;;
46439;SDS011;32138;50.966;6.968;2023-03-01T00:56:37;8.30;;;5.47;;
46439;SDS011;32138;50.966;6.968;2023-03-01T00:57:37;7.95;;;5.70;;
46439;SDS011;32138;50.966;6.968;2023-03-01T00:58:38;9.32;;;5.82;;
46439;SDS011;32138;50.966;6.968;2023-03-01T00:59:39;10.20;;;5.72;;
46439;SDS011;32138;50.966;6.968;2023-03-01T01:00:40;9.23;;;6.00;;
46439;SDS011;32138;50.966;6.968;2023-03-01T01:01:41;10.68;;;6.05;;
46439;SDS011;32138;50.966;6.968;2023-03-01T01:02:41;8.05;;;5.63;;
46439;SDS011;32138;50.966;6.968;2023-03-01T01:03:52;6.78;;;5.40;;
46439;SDS011;32138;50.966;6.968;2023-03-01T01:04:58;8.20;;;5.78;;
46439;SDS011;32138;50.966;6.968;2023-03-01T01:06:00;7.95;;;6.45;;
46439;SDS011;32138;50.966;6.968;2023-03-01T01:07:09;12.98;;;6.28;;
46439;SDS011;32138;50.966;6.968;2023-03-01T01:08:09;14.02;;;6.68;;
46439;SDS011;32138;50.966;6.968;2023-03-01T01:09:12;8.07;;;5.70;;
46439;SDS011;32138;50.966;6.968;2023-03-01T01:10:18;9.02;;;6.03;;
46439;SDS011;32138;50.966;6.968;2023-03-01T01:11:21;11.43;;;6.45;;
46439;SDS011;32138;50.966;6.968;2023-03-01T01:12:25;10.10;;;6.45;;
46439;SDS011;32138;50.966;6.968;2023-03-01T01:13:26;9.10;;;7.38;;
46439;SDS011;32138;50.966;6.968;2023-03-01T01:14:27;11.02;;;6.53;;
46439;SDS011;32138;50.966;6.968;2023-03-01T01:15:27;8.18;;;6.20;;
46439;SDS011;32138;50.966;6.968;2023-03-01T01:16:28;11.95;;;7.20;;
46439;SDS011;32138;50.966;6.968;2023-03-01T01:17:29;15.35;;;8.18;;
46439;SDS011;32138;50.966;6.968;2023-03-01T01:18:30;11.10;;;7.38;;
46439;SDS011;32138;50.966;6.968;2023-03-01T01:19:31;10.15;;;7.40;;
46439;SDS011;32138;50.966;6.968;2023-03-01T01:20:32;12.20;;;7.85;;
46439;SDS011;32138;50.966;6.968;2023-03-01T01:21:33;13.70;;;7.93;;
46439;SDS011;32138;50.966;6.968;2023-03-01T01:22:33;11.98;;;8.95;;
46439;SDS011;32138;50.966;6.968;2023-03-01T01:23:34;11.55;;;8.73;;
46439;SDS011;32138;50.966;6.968;2023-03-01T01:24:36;17.20;;;11.15;;
46439;SDS011;32138;50.966;6.968;2023-03-01T01:25:37;15.23;;;9.05;;
46439;SDS011;32138;50.966;6.968;2023-03-01T01:26:37;11.95;;;8.15;;
46439;SDS011;32138;50.966;6.968;2023-03-01T01:27:38;13.50;;;7.65;;
46439;SDS011;32138;50.966;6.968;2023-03-01T01:28:39;12.73;;;7.57;;
46439;SDS011;32138;50.966;6.968;2023-03-01T01:29:40;12.65;;;8.07;;
46439;SDS011;32138;50.966;6.968;2023-03-01T01:30:42;12.70;;;7.30;;
46439;SDS011;32138;50.966;6.968;2023-03-01T01:31:43;8.82;;;6.63;;
46439;SDS011;32138;50.966;6.968;2023-03-01T01:32:44;10.38;;;6.40;;
46439;SDS011;32138;50.966;6.968;2023-03-01T01:33:45;7.38;;;5.90;;
46439;SDS011;32138;50.966;6.968;2023-03-01T01:34:46;8.85;;;6.50;;
46439;SDS011;32138;50.966;6.968;2023-03-01T01:35:46;9.13;;;6.57;;
46439;SDS011;32138;50.966;6.968;2023-03-01T01:36:48;8.73;;;6.50;;
46439;SDS011;32138;50.966;6.968;2023-03-01T01:37:50;9.70;;;6.57;;
46439;SDS011;32138;50.966;6.968;2023-03-01T01:38:51;7.63;;;5.82;;
46439;SDS011;32138;50.966;6.968;2023-03-01T01:39:52;9.93;;;6.35;;
46439;SDS011;32138;50.966;6.968;2023-03-01T01:40:53;7.50;;;6.03;;
46439;SDS011;32138;50.966;6.968;2023-03-01T01:41:53;11.13;;;6.28;;
46439;SDS011;32138;50.966;6.968;2023-03-01T01:42:54;11.00;;;6.25;;
46439;SDS011;32138;50.966;6.968;2023-03-01T01:46:35;9.48;;;5.68;;
46439;SDS011;32138;50.966;6.968;2023-03-01T01:47:44;9.63;;;5.93;;
46439;SDS011;32138;50.966;6.968;2023-03-01T01:48:50;8.68;;;6.22;;
46439;SDS011;32138;50.966;6.968;2023-03-01T01:50:01;11.05;;;6.40;;
46439;SDS011;32138;50.966;6.968;2023-03-01T01:51:02;10.32;;;6.28;;
46439;SDS011;32138;50.966;6.968;2023-03-01T01:52:20;13.73;;;8.95;;
46439;SDS011;32138;50.966;6.968;2023-03-01T01:53:26;12.30;;;8.73;;
46439;SDS011;32138;50.966;6.968;2023-03-01T01:54:31;14.40;;;7.63;;
46439;SDS011;32138;50.966;6.968;2023-03-01T01:55:43;14.32;;;8.00;;
46439;SDS011;32138;50.966;6.968;2023-03-01T01:56:52;12.45;;;8.02;;
46439;SDS011;32138;50.966;6.968;2023-03-01T01:58:02;12.07;;;7.05;;
46439;SDS011;32138;50.966;6.968;2023-03-01T01:59:05;11.95;;;7.72;;
46439;SDS011;32138;50.966;6.968;2023-03-01T02:00:10;10.75;;;6.80;;
46439;SDS011;32138;50.966;6.968;2023-03-01T02:01:15;10.23;;;6.63;;
46439;SDS011;32138;50.966;6.968;2023-03-01T02:02:16;11.38;;;7.20;;
46439;SDS011;32138;50.966;6.968;2023-03-01T02:03:23;9.82;;;6.75;;
46439;SDS011;32138;50.966;6.968;2023-03-01T02:04:29;9.50;;;5.80;;
46439;SDS011;32138;50.966;6.968;2023-03-01T02:05:33;12.80;;;6.05;;
46439;SDS011;32138;50.966;6.968;2023-03-01T02:07:18;11.68;;;6.80;;
46439;SDS011;32138;50.966;6.968;2023-03-01T02:08:21;11.10;;;6.80;;
46439;SDS011;32138;50.966;6.968;2023-03-01T02:09:25;9.45;;;6.82;;
46439;SDS011;32138;50.966;6.968;2023-03-01T02:10:27;9.40;;;6.60;;
46439;SDS011;32138;50.966;6.968;2023-03-01T02:11:29;10.35;;;7.28;;
46439;SDS011;32138;50.966;6.968;2023-03-01T02:12:31;10.48;;;6.32;;
46439;SDS011;32138;50.966;6.968;2023-03-01T02:13:34;11.98;;;7.78;;
46439;SDS011;32138;50.966;6.968;2023-03-01T02:14:35;9.00;;;6.30;;
46439;SDS011;32138;50.966;6.968;2023-03-01T02:15:37;10.05;;;6.70;;
46439;SDS011;32138;50.966;6.968;2023-03-01T02:16:40;10.25;;;7.10;;
46439;SDS011;32138;50.966;6.968;2023-03-01T02:17:42;11.45;;;6.93;;
46439;SDS011;32138;50.966;6.968;2023-03-01T02:18:43;12.27;;;6.97;;
46439;SDS011;32138;50.966;6.968;2023-03-01T02:21:35;10.15;;;6.88;;
46439;SDS011;32138;50.966;6.968;2023-03-01T02:22:46;8.80;;;6.57;;
46439;SDS011;32138;50.966;6.968;2023-03-01T02:23:48;9.65;;;6.53;;
46439;SDS011;32138;50.966;6.968;2023-03-01T02:26:17;10.30;;;6.35;;
46439;SDS011;32138;50.966;6.968;2023-03-01T02:27:21;12.20;;;7.30;;
46439;SDS011;32138;50.966;6.968;2023-03-01T02:29:34;15.57;;;6.95;;
46439;SDS011;32138;50.966;6.968;2023-03-01T02:30:35;9.98;;;6.20;;
46439;SDS011;32138;50.966;6.968;2023-03-01T02:31:36;12.45;;;7.38;;
46439;SDS011;32138;50.966;6.968;2023-03-01T02:32:42;11.40;;;7.15;;
46439;SDS011;32138;50.966;6.968;2023-03-01T02:33:43;10.07;;;6.75;;
46439;SDS011;32138;50.966;6.968;2023-03-01T02:34:45;9.57;;;6.32;;
46439;SDS011;32138;50.966;6.968;2023-03-01T02:35:47;9.63;;;6.82;;
46439;SDS011;32138;50.966;6.968;2023-03-01T02:36:54;11.38;;;7.07;;
46439;SDS011;32138;50.966;6.968;2023-03-01T02:38:01;9.02;;;6.15;;
46439;SDS011;32138;50.966;6.968;2023-03-01T02:39:04;10.70;;;7.07;;
46439;SDS011;32138;50.966;6.968;2023-03-01T02:40:11;10.25;;;6.32;;
46439;SDS011;32138;50.966;6.968;2023-03-01T02:41:17;9.45;;;6.72;;
46439;SDS011;32138;50.966;6.968;2023-03-01T02:42:21;9.77;;;6.50;;
46439;SDS011;32138;50.966;6.968;2023-03-01T02:44:33;8.48;;;6.38;;
46439;SDS011;32138;50.966;6.968;2023-03-01T02:45:34;9.60;;;6.70;;
46439;SDS011;32138;50.966;6.968;2023-03-01T02:46:41;9.13;;;7.20;;
46439;SDS011;32138;50.966;6.968;2023-03-01T02:47:44;9.65;;;6.03;;
46439;SDS011;32138;50.966;6.968;2023-03-01T02:48:49;10.57;;;6.82;;
46439;SDS011;32138;50.966;6.968;2023-03-01T02:49:53;11.88;;;7.45;;
46439;SDS011;32138;50.966;6.968;2023-03-01T02:52:45;8.63;;;5.90;;
46439;SDS011;32138;50.966;6.968;2023-03-01T02:54:04;9.63;;;6.88;;
46439;SDS011;32138;50.966;6.968;2023-03-01T02:55:21;9.93;;;6.57;;
46439;SDS011;32138;50.966;6.968;2023-03-01T02:56:22;13.25;;;7.68;;
46439;SDS011;32138;50.966;6.968;2023-03-01T02:57:23;10.02;;;6.95;;
46439;SDS011;32138;50.966;6.968;2023-03-01T02:58:25;10.00;;;6.15;;
46439;SDS011;32138;50.966;6.968;2023-03-01T02:59:27;11.45;;;7.15;;
46439;SDS011;32138;50.966;6.968;2023-03-01T03:00:40;12.52;;;8.23;;
46439;SDS011;32138;50.966;6.968;2023-03-01T03:01:46;9.45;;;7.00;;
46439;SDS011;32138;50.966;6.968;2023-03-01T03:02:49;13.02;;;7.55;;
46439;SDS011;32138;50.966;6.968;2023-03-01T03:03:52;11.48;;;7.35;;
46439;SDS011;32138;50.966;6.968;2023-03-01T03:04:53;10.73;;;7.22;;
46439;SDS011;32138;50.966;6.968;2023-03-01T03:05:54;10.80;;;6.90;;
46439;SDS011;32138;50.966;6.968;2023-03-01T03:06:54;11.93;;;7.25;;
46439;SDS011;32138;50.966;6.968;2023-03-01T03:07:55;11.80;;;7.28;;
46439;SDS011;32138;50.966;6.968;2023-03-01T03:08:58;11.68;;;7.32;;
46439;SDS011;32138;50.966;6.968;2023-03-01T03:10:01;11.05;;;7.43;;
46439;SDS011;32138;50.966;6.968;2023-03-01T03:11:04;10.50;;;6.95;;
46439;SDS011;32138;50.966;6.968;2023-03-01T03:12:05;9.85;;;7.45;;
46439;SDS011;32138;50.966;6.968;2023-03-01T03:13:07;11.60;;;7.10;;
46439;SDS011;32138;50.966;6.968;2023-03-01T03:14:13;9.57;;;6.78;;
46439;SDS011;32138;50.966;6.968;2023-03-01T03:15:15;10.25;;;7.28;;
46439;SDS011;32138;50.966;6.968;2023-03-01T03:16:18;14.20;;;7.70;;
46439;SDS011;32138;50.966;6.968;2023-03-01T03:17:19;11.55;;;7.45;;
46439;SDS011;32138;50.966;6.968;2023-03-01T03:18:20;10.38;;;7.30;;
46439;SDS011;32138;50.966;6.968;2023-03-01T03:19:21;10.35;;;7.13;;
46439;SDS011;32138;50.966;6.968;2023-03-01T03:20:23;9.27;;;7.15;;
46439;SDS011;32138;50.966;6.968;2023-03-01T03:21:26;11.40;;;7.68;;
46439;SDS011;32138;50.966;6.968;2023-03-01T03:22:27;11.20;;;7.40;;
46439;SDS011;32138;50.966;6.968;2023-03-01T03:23:28;9.27;;;7.13;;
46439;SDS011;32138;50.966;6.968;2023-03-01T03:24:30;8.70;;;6.82;;
46439;SDS011;32138;50.966;6.968;2023-03-01T03:25:37;12.18;;;8.38;;
46439;SDS011;32138;50.966;6.968;2023-03-01T03:26:38;11.27;;;7.80;;
46439;SDS011;32138;50.966;6.968;2023-03-01T03:27:39;15.30;;;8.93;;
46439;SDS011;32138;50.966;6.968;2023-03-01T03:28:43;12.13;;;8.05;;
46439;SDS011;32138;50.966;6.968;2023-03-01T03:29:44;11.02;;;7.35;;
46439;SDS011;32138;50.966;6.968;2023-03-01T03:30:45;10.88;;;7.55;;
46439;SDS011;32138;50.966;6.968;2023-03-01T03:31:47;10.02;;;7.43;;
46439;SDS011;32138;50.966;6.968;2023-03-01T03:32:47;8.98;;;7.15;;
46439;SDS011;32138;50.966;6.968;2023-03-01T03:33:54;11.02;;;7.18;;
46439;SDS011;32138;50.966;6.968;2023-03-01T03:34:56;11.15;;;7.43;;
46439;SDS011;32138;50.966;6.968;2023-03-01T03:35:57;9.45;;;6.90;;
46439;SDS011;32138;50.966;6.968;2023-03-01T03:36:58;10.02;;;6.75;;
46439;SDS011;32138;50.966;6.968;2023-03-01T03:38:00;11.45;;;7.60;;
46439;SDS011;32138;50.966;6.968;2023-03-01T03:39:06;9.82;;;7.30;;
46439;SDS011;32138;50.966;6.968;2023-03-01T03:40:07;12.07;;;8.05;;
46439;SDS011;32138;50.966;6.968;2023-03-01T03:41:15;10.68;;;7.20;;
46439;SDS011;32138;50.966;6.968;2023-03-01T03:42:16;10.10;;;7.38;;
46439;SDS011;32138;50.966;6.968;2023-03-01T03:43:18;10.20;;;7.63;;
46439;SDS011;32138;50.966;6.968;2023-03-01T03:44:21;13.48;;;7.75;;
46439;SDS011;32138;50.966;6.968;2023-03-01T03:45:22;11.73;;;7.93;;
46439;SDS011;32138;50.966;6.968;2023-03-01T03:46:22;11.57;;;8.38;;
46439;SDS011;32138;50.966;6.968;2023-03-01T03:47:23;11.65;;;7.43;;
46439;SDS011;32138;50.966;6.968;2023-03-01T03:48:24;12.23;;;7.68;;
46439;SDS011;32138;50.966;6.968;2023-03-01T03:49:25;9.63;;;7.32;;
46439;SDS011;32138;50.966;6.968;2023-03-01T03:50:26;10.88;;;7.78;;
46439;SDS011;32138;50.966;6.968;2023-03-01T03:51:27;13.40;;;7.85;;
46439;SDS011;32138;50.966;6.968;2023-03-01T03:52:28;12.23;;;7.45;;
46439;SDS011;32138;50.966;6.968;2023-03-01T03:53:28;11.18;;;7.10;;
46439;SDS011;32138;50.966;6.968;2023-03-01T03:54:29;12.38;;;7.95;;
46439;SDS011;32138;50.966;6.968;2023-03-01T03:55:30;11.35;;;8.30;;
46439;SDS011;32138;50.966;6.968;2023-03-01T03:56:33;10.55;;;7.97;;
46439;SDS011;32138;50.966;6.968;2023-03-01T03:57:35;10.05;;;7.70;;
46439;SDS011;32138;50.966;6.968;2023-03-01T03:58:40;11.35;;;7.75;;
46439;SDS011;32138;50.966;6.968;2023-03-01T03:59:41;11.23;;;8.07;;
46439;SDS011;32138;50.966;6.968;2023-03-01T04:00:43;11.52;;;7.47;;
46439;SDS011;32138;50.966;6.968;2023-03-01T04:01:44;14.40;;;7.68;;
46439;SDS011;32138;50.966;6.968;2023-03-01T04:02:45;10.60;;;7.88;;
46439;SDS011;32138;50.966;6.968;2023-03-01T04:03:47;10.15;;;8.00;;
46439;SDS011;32138;50.966;6.968;2023-03-01T04:04:48;9.93;;;7.57;;
46439;SDS011;32138;50.966;6.968;2023-03-01T04:05:49;11.13;;;7.68;;
46439;SDS011;32138;50.966;6.968;2023-03-01T04:06:51;11.98;;;8.27;;
46439;SDS011;32138;50.966;6.968;2023-03-01T04:07:52;13.50;;;7.47;;
46439;SDS011;32138;50.966;6.968;2023-03-01T04:09:00;10.18;;;7.50;;
46439;SDS011;32138;50.966;6.968;2023-03-01T04:10:05;11.65;;;8.10;;
46439;SDS011;32138;50.966;6.968;2023-03-01T04:11:10;9.77;;;7.40;;
46439;SDS011;32138;50.966;6.968;2023-03-01T04:12:27;11.60;;;7.75;;
46439;SDS011;32138;50.966;6.968;2023-03-01T04:13:28;12.90;;;7.78;;
46439;SDS011;32138;50.966;6.968;2023-03-01T04:14:28;10.68;;;7.85;;
46439;SDS011;32138;50.966;6.968;2023-03-01T04:15:30;10.65;;;7.63;;
46439;SDS011;32138;50.966;6.968;2023-03-01T04:16:32;11.50;;;8.10;;
46439;SDS011;32138;50.966;6.968;2023-03-01T04:17:33;10.88;;;8.43;;
46439;SDS011;32138;50.966;6.968;2023-03-01T04:18:34;12.35;;;7.88;;
46439;SDS011;32138;50.966;6.968;2023-03-01T04:19:34;11.50;;;7.75;;
46439;SDS011;32138;50.966;6.968;2023-03-01T04:20:36;11.77;;;8.40;;
46439;SDS011;32138;50.966;6.968;2023-03-01T04:21:36;10.15;;;8.18;;
46439;SDS011;32138;50.966;6.968;2023-03-01T04:22:38;12.98;;;8.32;;
46439;SDS011;32138;50.966;6.968;2023-03-01T04:23:40;12.55;;;8.32;;
46439;SDS011;32138;50.966;6.968;2023-03-01T04:24:41;11.68;;;8.07;;
46439;SDS011;32138;50.966;6.968;2023-03-01T04:25:44;12.02;;;8.30;;
46439;SDS011;32138;50.966;6.968;2023-03-01T04:26:56;10.80;;;7.90;;
46439;SDS011;32138;50.966;6.968;2023-03-01T04:27:57;13.13;;;8.40;;
46439;SDS011;32138;50.966;6.968;2023-03-01T04:28:58;10.98;;;8.45;;
46439;SDS011;32138;50.966;6.968;2023-03-01T04:29:59;13.25;;;7.88;;
46439;SDS011;32138;50.966;6.968;2023-03-01T04:31:02;12.38;;;8.00;;
46439;SDS011;32138;50.966;6.968;2023-03-01T04:32:16;13.13;;;8.18;;
46439;SDS011;32138;50.966;6.968;2023-03-01T04:33:17;12.70;;;8.63;;
46439;SDS011;32138;50.966;6.968;2023-03-01T04:34:19;12.30;;;8.35;;
46439;SDS011;32138;50.966;6.968;2023-03-01T04:35:20;13.23;;;8.60;;
46439;SDS011;32138;50.966;6.968;2023-03-01T04:36:21;11.07;;;7.45;;
46439;SDS011;32138;50.966;6.968;2023-03-01T04:37:27;12.15;;;8.52;;
46439;SDS011;32138;50.966;6.968;2023-03-01T04:38:29;15.43;;;9.05;;
46439;SDS011;32138;50.966;6.968;2023-03-01T04:39:30;12.32;;;8.88;;
46439;SDS011;32138;50.966;6.968;2023-03-01T04:40:31;11.73;;;8.07;;
46439;SDS011;32138;50.966;6.968;2023-03-01T04:41:32;12.63;;;9.00;;
46439;SDS011;32138;50.966;6.968;2023-03-01T04:42:33;11.05;;;8.52;;
46439;SDS011;32138;50.966;6.968;2023-03-01T04:43:34;14.98;;;9.60;;
46439;SDS011;32138;50.966;6.968;2023-03-01T04:44:35;13.43;;;9.02;;
46439;SDS011;32138;50.966;6.968;2023-03-01T04:45:36;12.52;;;9.45;;
46439;SDS011;32138;50.966;6.968;2023-03-01T04:46:37;13.65;;;9.27;;
46439;SDS011;32138;50.966;6.968;2023-03-01T04:47:38;11.95;;;8.82;;
46439;SDS011;32138;50.966;6.968;2023-03-01T04:48:44;12.07;;;9.05;;
46439;SDS011;32138;50.966;6.968;2023-03-01T04:49:46;12.88;;;8.55;;
46439;SDS011;32138;50.966;6.968;2023-03-01T04:50:47;10.55;;;8.10;;
46439;SDS011;32138;50.966;6.968;2023-03-01T04:51:48;10.38;;;8.30;;
46439;SDS011;32138;50.966;6.968;2023-03-01T04:52:48;13.95;;;9.65;;
46439;SDS011;32138;50.966;6.968;2023-03-01T04:53:50;12.93;;;9.23;;
46439;SDS011;32138;50.966;6.968;2023-03-01T04:54:51;15.73;;;10.48;;
46439;SDS011;32138;50.966;6.968;2023-03-01T04:55:52;12.48;;;9.35;;
46439;SDS011;32138;50.966;6.968;2023-03-01T04:56:55;19.10;;;9.73;;
46439;SDS011;32138;50.966;6.968;2023-03-01T04:57:56;14.13;;;9.10;;
46439;SDS011;32138;50.966;6.968;2023-03-01T04:58:57;12.23;;;9.25;;
46439;SDS011;32138;50.966;6.968;2023-03-01T04:59:57;16.85;;;9.52;;
46439;SDS011;32138;50.966;6.968;2023-03-01T05:00:58;17.55;;;9.73;;
46439;SDS011;32138;50.966;6.968;2023-03-01T05:01:59;13.70;;;9.25;;
46439;SDS011;32138;50.966;6.968;2023-03-01T05:03:00;15.07;;;10.27;;
46439;SDS011;32138;50.966;6.968;2023-03-01T05:04:01;14.15;;;10.07;;
46439;SDS011;32138;50.966;6.968;2023-03-01T05:05:03;15.30;;;10.23;;
46439;SDS011;32138;50.966;6.968;2023-03-01T05:06:05;19.30;;;10.35;;
46439;SDS011;32138;50.966;6.968;2023-03-01T05:07:06;16.77;;;10.50;;
46439;SDS011;32138;50.966;6.968;2023-03-01T05:08:07;12.68;;;9.48;;
46439;SDS011;32138;50.966;6.968;2023-03-01T05:09:08;14.90;;;10.15;;
46439;SDS011;32138;50.966;6.968;2023-03-01T05:10:09;16.02;;;9.90;;
46439;SDS011;32138;50.966;6.968;2023-03-01T05:11:10;13.95;;;9.80;;
46439;SDS011;32138;50.966;6.968;2023-03-01T05:12:12;17.55;;;9.73;;
46439;SDS011;32138;50.966;6.968;2023-03-01T05:13:14;16.15;;;10.48;;
46439;SDS011;32138;50.966;6.968;2023-03-01T05:14:20;16.13;;;10.02;;
46439;SDS011;32138;50.966;6.968;2023-03-01T05:15:21;14.05;;;10.57;;
46439;SDS011;32138;50.966;6.968;2023-03-01T05:16:25;13.57;;;9.73;;
46439;SDS011;32138;50.966;6.968;2023-03-01T05:17:26;14.23;;;10.35;;
46439;SDS011;32138;50.966;6.968;2023-03-01T05:18:27;14.40;;;10.50;;
46439;SDS011;32138;50.966;6.968;2023-03-01T05:19:30;18.25;;;10.88;;
46439;SDS011;32138;50.966;6.968;2023-03-01T05:20:32;16.08;;;9.85;;
46439;SDS011;32138;50.966;6.968;2023-03-01T05:21:36;18.65;;;10.60;;
46439;SDS011;32138;50.966;6.968;2023-03-01T05:22:58;80.10;;;45.70;;
46439;SDS011;32138;50.966;6.968;2023-03-01T05:24:00;75.93;;;50.88;;
46439;SDS011;32138;50.966;6.968;2023-03-01T05:25:02;58.53;;;38.08;;
46439;SDS011;32138;50.966;6.968;2023-03-01T05:26:04;41.30;;;28.63;;
46439;SDS011;32138;50.966;6.968;2023-03-01T05:27:06;25.17;;;15.90;;
46439;SDS011;32138;50.966;6.968;2023-03-01T05:28:10;16.70;;;11.48;;
46439;SDS011;32138;50.966;6.968;2023-03-01T05:29:12;16.38;;;11.90;;
46439;SDS011;32138;50.966;6.968;2023-03-01T05:30:12;18.27;;;11.27;;
46439;SDS011;32138;50.966;6.968;2023-03-01T05:31:14;15.73;;;11.52;;
46439;SDS011;32138;50.966;6.968;2023-03-01T05:32:14;18.63;;;11.73;;
46439;SDS011;32138;50.966;6.968;2023-03-01T05:33:16;15.40;;;11.30;;
46439;SDS011;32138;50.966;6.968;2023-03-01T05:34:17;16.38;;;11.63;;
46439;SDS011;32138;50.966;6.968;2023-03-01T05:35:17;16.67;;;11.82;;
46439;SDS011;32138;50.966;6.968;2023-03-01T05:36:18;18.52;;;11.18;;
46439;SDS011;32138;50.966;6.968;2023-03-01T05:37:19;18.13;;;11.05;;
46439;SDS011;32138;50.966;6.968;2023-03-01T05:38:20;16.60;;;10.32;;
46439;SDS011;32138;50.966;6.968;2023-03-01T05:39:23;14.15;;;10.80;;
46439;SDS011;32138;50.966;6.968;2023-03-01T05:40:25;17.58;;;11.52;;
46439;SDS011;32138;50.966;6.968;2023-03-01T05:41:26;17.73;;;11.65;;
46439;SDS011;32138;50.966;6.968;2023-03-01T05:42:27;15.48;;;10.35;;
46439;SDS011;32138;50.966;6.968;2023-03-01T05:43:30;15.43;;;11.20;;
46439;SDS011;32138;50.966;6.968;2023-03-01T05:44:33;17.02;;;10.88;;
46439;SDS011;32138;50.966;6.968;2023-03-01T05:45:35;17.25;;;10.05;;
46439;SDS011;32138;50.966;6.968;2023-03-01T05:46:38;14.95;;;11.30;;
46439;SDS011;32138;50.966;6.968;2023-03-01T05:47:39;17.63;;;11.88;;
46439;SDS011;32138;50.966;6.968;2023-03-01T05:48:44;15.63;;;10.73;;
46439;SDS011;32138;50.966;6.968;2023-03-01T05:49:45;15.98;;;10.73;;
46439;SDS011;32138;50.966;6.968;2023-03-01T05:50:46;16.70;;;10.25;;
46439;SDS011;32138;50.966;6.968;2023-03-01T05:51:48;17.65;;;12.82;;
46439;SDS011;32138;50.966;6.968;2023-03-01T05:52:57;17.60;;;10.95;;
46439;SDS011;32138;50.966;6.968;2023-03-01T05:53:58;16.35;;;11.27;;
46439;SDS011;32138;50.966;6.968;2023-03-01T05:54:58;15.93;;;10.45;;
46439;SDS011;32138;50.966;6.968;2023-03-01T05:55:59;14.02;;;10.40;;
46439;SDS011;32138;50.966;6.968;2023-03-01T05:57:03;14.98;;;10.60;;
46439;SDS011;32138;50.966;6.968;2023-03-01T05:58:05;13.70;;;10.18;;
46439;SDS011;32138;50.966;6.968;2023-03-01T05:59:10;17.35;;;9.63;;
46439;SDS011;32138;50.966;6.968;2023-03-01T06:00:12;14.63;;;10.20;;
46439;SDS011;32138;50.966;6.968;2023-03-01T06:01:15;14.38;;;11.05;;
46439;SDS011;32138;50.966;6.968;2023-03-01T06:02:16;13.35;;;10.82;;
46439;SDS011;32138;50.966;6.968;2023-03-01T06:03:17;16.20;;;10.55;;
46439;SDS011;32138;50.966;6.968;2023-03-01T06:04:18;16.45;;;10.52;;
46439;SDS011;32138;50.966;6.968;2023-03-01T06:05:18;14.48;;;10.55;;
46439;SDS011;32138;50.966;6.968;2023-03-01T06:06:19;14.65;;;9.93;;
46439;SDS011;32138;50.966;6.968;2023-03-01T06:07:20;16.00;;;10.38;;
46439;SDS011;32138;50.966;6.968;2023-03-01T06:08:21;12.95;;;9.38;;
46439;SDS011;32138;50.966;6.968;2023-03-01T06:09:22;15.80;;;10.93;;
46439;SDS011;32138;50.966;6.968;2023-03-01T06:10:22;14.05;;;10.63;;
46439;SDS011;32138;50.966;6.968;2023-03-01T06:11:23;15.98;;;10.75;;
46439;SDS011;32138;50.966;6.968;2023-03-01T06:12:24;16.15;;;9.32;;
46439;SDS011;32138;50.966;6.968;2023-03-01T06:13:24;14.50;;;10.48;;
46439;SDS011;32138;50.966;6.968;2023-03-01T06:14:25;13.63;;;11.07;;
46439;SDS011;32138;50.966;6.968;2023-03-01T06:15:26;15.93;;;10.18;;
46439;SDS011;32138;50.966;6.968;2023-03-01T06:16:27;14.18;;;9.30;;
46439;SDS011;32138;50.966;6.968;2023-03-01T06:17:31;13.45;;;10.65;;
46439;SDS011;32138;50.966;6.968;2023-03-01T06:18:37;14.63;;;11.85;;
46439;SDS011;32138;50.966;6.968;2023-03-01T06:19:38;17.10;;;10.82;;
46439;SDS011;32138;50.966;6.968;2023-03-01T06:20:39;15.95;;;10.18;;
46439;SDS011;32138;50.966;6.968;2023-03-01T06:21:40;14.73;;;10.35;;
46439;SDS011;32138;50.966;6.968;2023-03-01T06:22:41;14.30;;;11.43;;